Airfield :
LOGIN :

Register | Disclaimer

   EN    FR    IT 

 










Legend :    VFR   Marginal VFR   IFR   Intensive IFR   Very Intensive IFR
Visi :
Ceiling :
>= 8 km
>= 3000ft
5 to 8 km
1000 to 3000 ft
1500m to 5 km
500 to 1000 ft
800 to 1500m
200 to 500 ft
< 800m
< 200 ft
Symbols :   Thunderstorms  Fog  Heavy snow  Heavy precipitations  Wind > 20 kt
SIGMETs :     Misc.  Thunderstorms  Icing  Turbulence  Mountain Waves  Volcanic Ashes







- Airport Elevation : 1363 ft


ETIC - Grafenwohr Army Air Field

CURRENT METAR :
  • 161656Z AUTO 24003KT 9999 SCT075 28/10 A2998 RMK AO2 SLP142 T02800097 TSNO $

EXPIRED METARs :
  • 161556Z AUTO 24004KT 9999 BKN075 29/10 A2999 RMK AO2 SLP145 T02850102 TSNO $
  • 161456Z AUTO 19006KT 9999 SCT070 29/10 A3000 RMK AO2 SLP149 T02910102 57016 TSNO $

TAF TAF ETIC
Valid from the 16 at 14:00 until the 17 at 20:00 UTC


161400Z 1614/1720 16006KT 9999 FEW040 QNH2999INS
BECMG 1709/1710 VRB06KT 9999 SCT050 QNH2996INS TX30/1614Z TN12/1704Z
No reported NOTAMs for that airfield.



MET'MAP, your aeronautical weather chart ! - Copyright ORBIFLY December 2007 - Disclaimer

ORBIFLY MET'MAP TEAM :

Programming & Development : Alexandra Zaïnal
Concept & Development : Baudouin d'Aumeries
Co-Development & Prog : Marc-Olivier Méhu
Technical & hardware support : Manuel Goepfert

Contact : metmap@orbifly.com




SOURCES & CREDITS :

   NOAA